createdAt,value
2022-08-22T00:00:13.819Z,9.88
2022-08-22T00:03:09.242Z,10.60
2022-08-22T00:03:27.526Z,9.93
2022-08-22T00:06:49.571Z,10.63
2022-08-22T00:10:07.847Z,10.00
2022-08-22T00:13:28.223Z,9.80
2022-08-22T00:16:42.110Z,10.05
2022-08-22T00:20:07.883Z,9.40
2022-08-22T00:23:40.514Z,9.65
2022-08-22T00:26:54.537Z,9.23
2022-08-22T00:30:11.759Z,9.63
2022-08-22T00:33:29.426Z,9.75
2022-08-22T00:36:52.491Z,8.55
2022-08-22T00:40:30.092Z,8.43
2022-08-22T00:44:09.988Z,8.80
2022-08-22T00:47:31.382Z,7.33
2022-08-22T00:50:55.763Z,7.53
2022-08-22T00:54:27.792Z,6.25
2022-08-22T00:57:42.403Z,5.60
2022-08-22T01:00:53.660Z,4.20
2022-08-22T01:04:34.485Z,4.30
2022-08-22T01:07:39.712Z,4.18
2022-08-22T01:11:09.918Z,4.13
2022-08-22T01:14:34.335Z,4.22
2022-08-22T01:17:47.187Z,3.97
2022-08-22T01:21:04.768Z,3.70
2022-08-22T01:24:25.991Z,4.15
2022-08-22T01:27:37.341Z,3.95
2022-08-22T01:31:16.656Z,3.90
2022-08-22T01:34:55.874Z,3.50
2022-08-22T01:38:22.976Z,3.20
2022-08-22T01:41:34.191Z,3.42
2022-08-22T01:45:13.283Z,3.47
2022-08-22T01:48:15.598Z,3.30
2022-08-22T01:51:24.647Z,3.67
2022-08-22T01:54:42.880Z,3.50
2022-08-22T01:57:55.749Z,3.58
2022-08-22T02:01:19.433Z,2.78
2022-08-22T02:04:46.933Z,3.30
2022-08-22T02:08:20.108Z,3.07
2022-08-22T02:11:37.553Z,3.03
2022-08-22T02:15:25.991Z,3.30
2022-08-22T02:18:34.179Z,3.30
2022-08-22T02:21:55.808Z,3.80
2022-08-22T02:25:27.055Z,3.60
2022-08-22T02:28:57.152Z,3.90
2022-08-22T02:32:17.055Z,4.30
2022-08-22T02:35:26.242Z,4.47
2022-08-22T02:38:38.804Z,4.57
2022-08-22T02:42:00.016Z,5.37
2022-08-22T02:45:41.694Z,5.60
2022-08-22T02:49:12.978Z,6.28
2022-08-22T02:52:26.454Z,5.93
2022-08-22T02:55:40.847Z,6.35
2022-08-22T02:58:51.562Z,6.40
2022-08-22T03:01:55.863Z,7.23
2022-08-22T03:05:14.528Z,7.60
2022-08-22T03:08:17.117Z,7.38
2022-08-22T03:11:30.049Z,6.97
2022-08-22T03:14:42.659Z,7.07
2022-08-22T03:17:57.190Z,6.93
2022-08-22T03:21:30.354Z,6.75
2022-08-22T03:24:44.067Z,6.97
2022-08-22T03:28:08.205Z,5.93
2022-08-22T03:31:16.987Z,6.37
2022-08-22T03:34:26.448Z,6.50
2022-08-22T03:37:31.442Z,5.90
2022-08-22T03:40:43.502Z,5.40
2022-08-22T03:44:04.760Z,5.55
2022-08-22T03:47:25.968Z,5.90
2022-08-22T03:50:54.449Z,5.53
2022-08-22T03:54:08.816Z,5.72
2022-08-22T03:57:23.327Z,5.50
2022-08-22T04:00:42.813Z,4.80
2022-08-22T04:03:54.495Z,5.37
2022-08-22T04:07:28.043Z,5.27
2022-08-22T04:11:08.019Z,4.88
2022-08-22T04:14:47.610Z,4.38
2022-08-22T04:18:02.053Z,4.43
2022-08-22T04:21:31.785Z,3.90
2022-08-22T04:24:43.406Z,4.00
2022-08-22T04:28:11.079Z,3.63
2022-08-22T04:31:17.653Z,4.07
2022-08-22T04:34:42.668Z,3.45
2022-08-22T04:37:48.159Z,4.37
2022-08-22T04:41:02.536Z,3.97
2022-08-22T04:44:25.053Z,4.70
2022-08-22T04:48:05.806Z,4.22
2022-08-22T04:51:17.493Z,4.47
2022-08-22T04:54:46.742Z,7.00
2022-08-22T04:58:01.641Z,4.43
2022-08-22T05:01:21.670Z,4.30
2022-08-22T05:04:36.075Z,4.43
2022-08-22T05:07:51.775Z,4.60
2022-08-22T05:10:54.787Z,5.13
2022-08-22T05:14:02.604Z,5.10
2022-08-22T05:17:10.463Z,4.47
2022-08-22T05:20:17.599Z,4.85
2022-08-22T05:23:44.484Z,4.30
2022-08-22T05:26:51.397Z,5.10
2022-08-22T05:30:02.221Z,4.57
2022-08-22T05:33:27.910Z,4.47
2022-08-22T05:36:57.252Z,4.55
2022-08-22T05:40:01.358Z,4.63
2022-08-22T05:43:05.947Z,4.70
2022-08-22T05:46:18.294Z,3.90
2022-08-22T05:49:32.901Z,3.30
2022-08-22T05:53:17.514Z,3.28
2022-08-22T05:56:38.773Z,3.17
2022-08-22T05:59:44.279Z,3.20
2022-08-22T06:02:49.633Z,3.63
2022-08-22T06:05:55.824Z,4.35
2022-08-22T06:09:27.262Z,4.70
2022-08-22T06:12:53.093Z,4.28
2022-08-22T06:16:18.198Z,4.10
2022-08-22T06:19:21.106Z,3.80
2022-08-22T06:22:27.696Z,4.07
2022-08-22T06:25:37.582Z,4.10
2022-08-22T06:28:46.713Z,3.50
2022-08-22T06:31:59.035Z,3.97
2022-08-22T06:35:06.146Z,3.83
2022-08-22T06:38:09.648Z,3.80
2022-08-22T06:41:12.264Z,3.35
2022-08-22T06:44:18.012Z,3.20
2022-08-22T06:47:26.666Z,3.00
2022-08-22T06:50:34.024Z,3.43
2022-08-22T06:53:59.250Z,3.00
2022-08-22T06:57:04.938Z,3.40
2022-08-22T07:00:12.830Z,3.10
2022-08-22T07:03:36.936Z,3.23
2022-08-22T07:06:47.329Z,2.93
2022-08-22T07:09:51.688Z,3.28
2022-08-22T07:12:56.903Z,3.50
2022-08-22T07:16:02.594Z,3.67
2022-08-22T07:19:06.792Z,3.70
2022-08-22T07:22:17.402Z,3.60
2022-08-22T07:25:20.282Z,3.40
2022-08-22T07:28:51.528Z,2.90
2022-08-22T07:32:17.525Z,2.92
2022-08-22T07:35:23.380Z,3.40
2022-08-22T07:38:37.557Z,3.37
2022-08-22T07:41:55.234Z,3.10
2022-08-22T07:45:16.471Z,3.35
2022-08-22T07:49:08.214Z,3.25
2022-08-22T07:52:13.849Z,3.07
2022-08-22T07:55:23.111Z,3.03
2022-08-22T07:58:28.776Z,3.30
2022-08-22T08:01:31.707Z,3.10
2022-08-22T08:04:40.187Z,3.13
2022-08-22T08:07:47.865Z,3.30
2022-08-22T08:10:53.458Z,3.30
2022-08-22T08:14:02.726Z,3.33
2022-08-22T08:17:13.582Z,2.78
2022-08-22T08:20:21.231Z,2.70
2022-08-22T08:23:25.120Z,2.63
2022-08-22T08:26:39.761Z,2.80
2022-08-22T08:29:50.653Z,3.17
2022-08-22T08:32:57.356Z,2.67
2022-08-22T08:36:39.955Z,2.80
2022-08-22T08:39:48.623Z,3.40
2022-08-22T08:43:28.040Z,3.40
2022-08-22T08:46:59.801Z,3.30
2022-08-22T08:50:17.509Z,3.03
2022-08-22T08:54:03.546Z,2.88
2022-08-22T08:57:34.648Z,3.00
2022-08-22T09:00:46.359Z,3.20
2022-08-22T09:04:04.739Z,3.30
2022-08-22T09:07:52.078Z,3.10
2022-08-22T09:11:28.750Z,2.97
2022-08-22T09:14:34.321Z,3.30
2022-08-22T09:17:52.029Z,3.20
2022-08-22T09:21:08.642Z,3.28
2022-08-22T09:24:48.820Z,3.30
2022-08-22T09:31:51.903Z,3.27
2022-08-22T09:35:01.508Z,3.17
2022-08-22T09:38:13.081Z,3.42
2022-08-22T09:41:44.430Z,3.70
2022-08-22T09:44:59.411Z,3.20
2022-08-22T09:48:21.280Z,3.20
2022-08-22T09:51:32.624Z,3.27
2022-08-22T09:54:44.469Z,3.10
2022-08-22T09:57:51.833Z,3.22
2022-08-22T10:01:00.678Z,3.97
2022-08-22T10:04:44.182Z,3.67
2022-08-22T10:08:13.948Z,3.93
2022-08-22T10:11:44.646Z,3.90
2022-08-22T10:15:32.285Z,3.55
2022-08-22T10:19:00.955Z,3.70
2022-08-22T10:22:47.837Z,3.73
2022-08-22T10:26:08.723Z,4.37
2022-08-22T10:29:43.685Z,4.00
2022-08-22T10:33:24.819Z,3.90
2022-08-22T10:36:41.056Z,4.32
2022-08-22T10:39:53.330Z,4.10
2022-08-22T10:43:11.952Z,3.57
2022-08-22T10:46:25.623Z,4.22
2022-08-22T10:49:34.364Z,4.25
2022-08-22T10:52:49.500Z,4.00
2022-08-22T10:55:58.468Z,4.17
2022-08-22T10:59:29.134Z,3.63
2022-08-22T11:02:36.264Z,3.95
2022-08-22T11:05:50.171Z,4.20
2022-08-22T11:09:20.738Z,4.15
2022-08-22T11:12:37.313Z,3.90
2022-08-22T11:16:08.753Z,4.13
2022-08-22T11:19:38.056Z,4.25
2022-08-22T11:22:58.838Z,4.18
2022-08-22T11:26:38.378Z,4.38
2022-08-22T11:30:02.194Z,3.67
2022-08-22T11:33:47.050Z,4.33
2022-08-22T11:37:14.900Z,4.10
2022-08-22T11:40:23.415Z,4.10
2022-08-22T11:43:46.916Z,4.35
2022-08-22T11:46:52.801Z,4.40
2022-08-22T11:50:13.841Z,5.03
2022-08-22T11:53:54.428Z,4.40
2022-08-22T11:57:11.600Z,4.20
2022-08-22T12:00:49.603Z,4.70
2022-08-22T12:04:09.882Z,4.22
2022-08-22T12:07:20.794Z,4.13
2022-08-22T12:10:33.329Z,3.92
2022-08-22T12:13:49.456Z,3.85
2022-08-22T12:17:55.827Z,4.35
2022-08-22T12:21:01.637Z,3.90
2022-08-22T12:24:19.415Z,3.67
2022-08-22T12:27:44.869Z,3.45
2022-08-22T12:31:05.711Z,3.33
2022-08-22T12:34:37.561Z,3.97
2022-08-22T12:37:59.561Z,3.80
2022-08-22T12:41:28.192Z,3.50
2022-08-22T12:44:37.286Z,3.70
2022-08-22T12:48:12.036Z,3.70
2022-08-22T12:51:42.214Z,3.50
2022-08-22T12:55:13.955Z,3.88
2022-08-22T12:58:46.210Z,3.83
2022-08-22T13:01:58.914Z,3.63
2022-08-22T13:05:19.559Z,4.10
2022-08-22T13:08:29.592Z,3.95
2022-08-22T13:11:39.242Z,4.30
2022-08-22T13:14:45.705Z,4.23
2022-08-22T13:17:53.449Z,4.25
2022-08-22T13:20:58.235Z,3.75
2022-08-22T13:24:16.699Z,4.20
2022-08-22T13:27:51.193Z,4.28
2022-08-22T13:30:55.896Z,4.23
2022-08-22T13:34:07.170Z,4.10
2022-08-22T13:37:16.085Z,3.85
2022-08-22T13:40:29.013Z,3.97
2022-08-22T13:43:38.010Z,4.22
2022-08-22T13:46:57.954Z,4.20
2022-08-22T13:50:14.792Z,4.68
2022-08-22T13:53:43.230Z,4.30
2022-08-22T13:56:58.275Z,4.00
2022-08-22T14:00:13.208Z,4.13
2022-08-22T14:03:59.433Z,4.87
2022-08-22T14:07:01.923Z,4.22
2022-08-22T14:10:19.513Z,4.18
2022-08-22T14:13:58.018Z,4.13
2022-08-22T14:17:01.811Z,3.63
2022-08-22T14:20:31.991Z,3.50
2022-08-22T14:23:35.804Z,3.78
2022-08-22T14:26:49.104Z,3.90
2022-08-22T14:29:55.684Z,3.65
2022-08-22T14:33:12.997Z,3.70
2022-08-22T14:36:53.267Z,3.77
2022-08-22T14:40:28.938Z,4.05
2022-08-22T14:43:31.889Z,3.75
2022-08-22T14:46:42.920Z,3.78
2022-08-22T14:50:00.925Z,3.90
2022-08-22T14:53:05.920Z,3.70
2022-08-22T14:56:29.385Z,3.88
2022-08-22T14:59:50.021Z,3.78
2022-08-22T15:02:55.221Z,4.13
2022-08-22T15:06:06.992Z,4.00
2022-08-22T15:09:28.346Z,3.90
2022-08-22T15:12:38.815Z,3.83
2022-08-22T15:15:53.495Z,4.20
2022-08-22T15:18:58.786Z,3.83
2022-08-22T15:22:08.542Z,3.87
2022-08-22T15:25:19.434Z,4.00
2022-08-22T15:28:24.860Z,3.67
2022-08-22T15:31:29.454Z,3.13
2022-08-22T15:34:42.218Z,2.95
2022-08-22T15:37:56.217Z,3.25
2022-08-22T15:41:23.189Z,3.30
2022-08-22T15:44:33.586Z,3.50
2022-08-22T15:47:36.224Z,3.53
2022-08-22T15:50:54.742Z,3.60
2022-08-22T15:54:13.181Z,3.72
2022-08-22T15:57:42.349Z,3.83
2022-08-22T16:01:04.795Z,4.10
2022-08-22T16:04:35.121Z,3.90
2022-08-22T16:07:37.462Z,4.20
2022-08-22T16:10:50.359Z,3.97
2022-08-22T16:14:21.745Z,4.10
2022-08-22T16:17:30.462Z,4.35
2022-08-22T16:20:32.825Z,3.78
2022-08-22T16:23:50.867Z,3.80
2022-08-22T16:26:53.556Z,4.00
2022-08-22T16:30:08.674Z,4.17
2022-08-22T16:33:18.533Z,3.90
2022-08-22T16:36:22.401Z,3.90
2022-08-22T16:39:24.741Z,3.65
2022-08-22T16:42:50.907Z,4.03
2022-08-22T16:45:53.434Z,3.87
2022-08-22T16:49:01.505Z,3.70
2022-08-22T16:52:25.857Z,3.83
2022-08-22T16:55:31.300Z,3.90
2022-08-22T16:58:59.174Z,4.13
2022-08-22T17:02:21.964Z,4.17
2022-08-22T17:05:45.155Z,3.83
2022-08-22T17:08:50.083Z,3.53
2022-08-22T17:12:06.690Z,4.20
2022-08-22T17:15:40.263Z,4.00
2022-08-22T17:18:57.611Z,4.10
2022-08-22T17:22:17.347Z,3.97
2022-08-22T17:25:50.383Z,3.67
2022-08-22T17:29:15.862Z,4.13
2022-08-22T17:32:33.527Z,4.13
2022-08-22T17:35:54.974Z,4.60
2022-08-22T17:39:39.852Z,4.57
2022-08-22T17:43:01.218Z,4.47
2022-08-22T17:46:27.587Z,4.40
2022-08-22T17:49:42.199Z,4.33
2022-08-22T17:52:57.330Z,4.50
2022-08-22T17:56:05.796Z,4.40
2022-08-22T17:59:33.054Z,4.22
2022-08-22T18:03:07.666Z,5.72
2022-08-22T18:06:28.242Z,5.57
2022-08-22T18:09:39.813Z,4.87
2022-08-22T18:12:57.119Z,4.78
2022-08-22T18:16:29.388Z,4.97
2022-08-22T18:19:50.425Z,5.22
2022-08-22T18:23:02.343Z,5.60
2022-08-22T18:26:17.808Z,5.70
2022-08-22T18:29:25.784Z,5.70
2022-08-22T18:32:41.164Z,5.70
2022-08-22T18:35:59.992Z,6.18
2022-08-22T18:39:18.730Z,6.03
2022-08-22T18:42:24.217Z,6.10
2022-08-22T18:45:45.586Z,6.05
2022-08-22T18:49:12.088Z,6.18
2022-08-22T18:52:16.021Z,6.20
2022-08-22T18:55:27.671Z,6.30
2022-08-22T18:58:30.079Z,6.23
2022-08-22T19:01:47.450Z,6.60
2022-08-22T19:05:11.759Z,9.52
2022-08-22T19:08:54.439Z,10.15
2022-08-22T19:12:24.983Z,9.27
2022-08-22T19:15:33.522Z,9.43
2022-08-22T19:18:43.673Z,9.52
2022-08-22T19:22:21.759Z,9.77
2022-08-22T19:25:26.975Z,8.50
2022-08-22T19:28:36.505Z,8.30
2022-08-22T19:31:41.127Z,7.10
2022-08-22T19:34:47.217Z,7.38
2022-08-22T19:37:56.671Z,7.60
2022-08-22T19:40:59.116Z,7.72
2022-08-22T19:44:01.578Z,6.87
2022-08-22T19:47:21.527Z,7.60
2022-08-22T19:50:31.211Z,7.53
2022-08-22T19:53:51.009Z,7.60
2022-08-22T19:57:10.393Z,6.88
2022-08-22T20:00:18.651Z,7.10
2022-08-22T20:03:32.499Z,7.53
2022-08-22T20:06:53.327Z,7.28
2022-08-22T20:10:00.166Z,7.63
2022-08-22T20:13:08.588Z,7.72
2022-08-22T20:16:23.440Z,6.63
2022-08-22T20:20:16.391Z,6.60
2022-08-22T20:23:28.436Z,7.03
2022-08-22T20:26:47.493Z,6.40
2022-08-22T20:30:49.385Z,6.47
2022-08-22T20:34:26.682Z,6.83
2022-08-22T20:38:05.157Z,7.53
2022-08-22T20:41:22.266Z,7.43
2022-08-22T20:44:33.333Z,7.35
2022-08-22T20:47:40.702Z,7.20
2022-08-22T20:50:44.159Z,6.57
2022-08-22T20:53:52.595Z,6.87
2022-08-22T20:56:59.981Z,6.82
2022-08-22T21:00:13.228Z,7.15
2022-08-22T21:03:36.778Z,6.75
2022-08-22T21:06:39.251Z,7.37
2022-08-22T21:10:00.097Z,7.10
2022-08-22T21:13:07.176Z,7.32
2022-08-22T21:16:22.197Z,7.72
2022-08-22T21:19:28.440Z,6.80
2022-08-22T21:22:32.575Z,6.93
2022-08-22T21:25:49.979Z,7.73
2022-08-22T21:29:04.264Z,7.13
2022-08-22T21:32:28.756Z,7.80
2022-08-22T21:35:33.362Z,6.57
2022-08-22T21:38:35.781Z,6.47
2022-08-22T21:41:52.802Z,6.63
2022-08-22T21:44:58.349Z,7.07
2022-08-22T21:48:01.816Z,7.10
2022-08-22T21:51:40.597Z,7.10
2022-08-22T21:54:42.995Z,8.63
2022-08-22T21:57:45.540Z,7.67
2022-08-22T22:01:27.804Z,8.25
2022-08-22T22:04:30.354Z,9.77
2022-08-22T22:07:32.745Z,10.27
2022-08-22T22:10:35.119Z,10.03
2022-08-22T22:13:38.836Z,11.20
2022-08-22T22:16:41.196Z,9.05
2022-08-22T22:19:44.037Z,9.35
2022-08-22T22:22:47.103Z,8.93
2022-08-22T22:25:51.178Z,9.70
2022-08-22T22:28:53.882Z,9.97
2022-08-22T22:31:56.378Z,10.07
2022-08-22T22:34:58.914Z,9.68
2022-08-22T22:38:02.141Z,8.65
2022-08-22T22:41:04.885Z,9.23
2022-08-22T22:44:07.748Z,10.40
2022-08-22T22:47:10.160Z,9.68
2022-08-22T22:50:12.921Z,10.80
2022-08-22T22:53:19.884Z,9.05
2022-08-22T22:56:24.416Z,8.20
2022-08-22T22:59:26.951Z,7.90
2022-08-22T23:02:29.547Z,9.00
2022-08-22T23:05:32.616Z,9.98
2022-08-22T23:08:34.963Z,9.52
2022-08-22T23:11:37.343Z,8.97
2022-08-22T23:14:39.748Z,10.00
2022-08-22T23:17:42.652Z,10.23
2022-08-22T23:20:44.984Z,11.05
2022-08-22T23:23:48.035Z,9.45
2022-08-22T23:26:50.610Z,9.90
2022-08-22T23:29:53.401Z,10.23
2022-08-22T23:32:56.119Z,9.80
2022-08-22T23:36:00.069Z,9.57
2022-08-22T23:39:05.352Z,9.75
2022-08-22T23:42:09.802Z,9.07
2022-08-22T23:45:12.231Z,9.33
2022-08-22T23:48:14.643Z,10.05
2022-08-22T23:51:22.894Z,11.20
2022-08-22T23:54:26.106Z,9.88
2022-08-22T23:57:29.452Z,10.17
